Time;durP1;ratioP1;P1;durP2;ratioP2;P2;SDS_P1;SDS_P2;PMS_P1;PMS_P2;Temp;Humidity;BMP_temperature;BMP_pressure;BME280_temperature;BME280_humidity;BME280_pressure;Samples;Min_cycle;Max_cycle;Signal;HPM_P1;HPM_P2
2021/11/06 00:02:08;;;;;;;22.08;7.95;;;;;;;;;;5028892;28;20025;-69
2021/11/06 00:04:34;;;;;;;19.98;8.40;;;;;;;;;;5028760;28;20026;-68
2021/11/06 00:07:00;;;;;;;19.83;7.63;;;;;;;;;;5031994;28;20464;-69
2021/11/06 00:09:26;;;;;;;18.63;7.72;;;;;;;;;;5031676;28;20060;-68
2021/11/06 00:12:06;;;;;;;21.38;8.85;;;;;;;;;;5031572;28;20052;-70
2021/11/06 00:14:32;;;;;;;20.33;8.38;;;;;;;;;;5030273;28;20032;-68
2021/11/06 00:16:59;;;;;;;20.27;8.57;;;;;;;;;;5031677;28;20388;-69
2021/11/06 00:19:25;;;;;;;24.05;9.00;;;;;;;;;;5030311;28;20041;-69
2021/11/06 00:21:51;;;;;;;19.58;8.18;;;;;;;;;;5030421;28;20477;-69
2021/11/06 00:24:17;;;;;;;21.40;9.30;;;;;;;;;;5031521;28;20036;-69
2021/11/06 00:26:43;;;;;;;22.60;10.45;;;;;;;;;;5030176;28;20022;-69
2021/11/06 00:29:09;;;;;;;21.65;10.57;;;;;;;;;;5031594;28;20034;-68
2021/11/06 00:31:35;;;;;;;23.08;10.57;;;;;;;;;;5031601;28;20092;-69
2021/11/06 00:34:01;;;;;;;24.95;10.43;;;;;;;;;;5029822;28;20037;-68
2021/11/06 00:36:27;;;;;;;31.45;10.15;;;;;;;;;;5030266;28;20033;-69
2021/11/06 00:38:53;;;;;;;26.70;10.98;;;;;;;;;;5031517;28;20026;-69
2021/11/06 00:41:19;;;;;;;26.08;10.75;;;;;;;;;;5030455;28;20507;-68
2021/11/06 00:43:46;;;;;;;23.70;10.43;;;;;;;;;;5031144;28;20061;-68
2021/11/06 00:46:12;;;;;;;25.13;10.95;;;;;;;;;;5031685;28;20474;-69
2021/11/06 00:48:38;;;;;;;25.63;10.55;;;;;;;;;;5030153;28;20026;-68
2021/11/06 00:51:04;;;;;;;22.75;10.95;;;;;;;;;;5030033;28;20099;-69
2021/11/06 00:53:30;;;;;;;24.27;11.70;;;;;;;;;;5029893;28;20030;-69
2021/11/06 00:55:58;;;;;;;32.20;14.57;;;;;;;;;;5030036;28;20030;-69
2021/11/06 00:58:27;;;;;;;25.33;13.30;;;;;;;;;;5029939;28;20029;-68
2021/11/06 01:00:53;;;;;;;25.50;12.60;;;;;;;;;;5030014;28;20124;-68
2021/11/06 01:03:19;;;;;;;23.75;11.73;;;;;;;;;;5031032;28;20075;-70
2021/11/06 01:05:45;;;;;;;23.65;11.80;;;;;;;;;;5031251;28;20032;-68
2021/11/06 01:08:11;;;;;;;25.50;12.60;;;;;;;;;;5029863;28;20027;-68
2021/11/06 01:10:37;;;;;;;26.38;13.98;;;;;;;;;;5031267;28;20466;-68
2021/11/06 01:13:03;;;;;;;27.17;11.77;;;;;;;;;;5031126;28;20401;-69
2021/11/06 01:15:29;;;;;;;22.90;11.68;;;;;;;;;;5030797;28;20104;-68
2021/11/06 01:17:55;;;;;;;26.50;11.98;;;;;;;;;;5029841;28;20059;-69
2021/11/06 01:20:21;;;;;;;24.98;10.68;;;;;;;;;;5030886;28;20430;-69
2021/11/06 01:22:47;;;;;;;23.10;11.77;;;;;;;;;;5031047;28;20053;-69
2021/11/06 01:25:15;;;;;;;22.33;11.90;;;;;;;;;;5030816;28;20029;-68
2021/11/06 01:27:41;;;;;;;23.40;12.02;;;;;;;;;;5030611;28;20478;-69
2021/11/06 01:30:08;;;;;;;25.90;12.00;;;;;;;;;;5033411;28;20492;-68
2021/11/06 01:32:37;;;;;;;24.83;11.77;;;;;;;;;;5034672;28;20033;-67
2021/11/06 01:35:05;;;;;;;24.55;12.43;;;;;;;;;;5034372;28;20034;-70
2021/11/06 01:37:32;;;;;;;26.45;12.55;;;;;;;;;;5034741;28;20477;-69
2021/11/06 01:39:58;;;;;;;24.55;11.60;;;;;;;;;;5033156;28;20112;-69
2021/11/06 01:42:25;;;;;;;26.20;12.50;;;;;;;;;;5034548;28;20115;-69
2021/11/06 01:44:51;;;;;;;22.65;11.60;;;;;;;;;;5034110;28;20096;-70
2021/11/06 01:47:19;;;;;;;25.90;11.63;;;;;;;;;;5032879;28;20032;-67
2021/11/06 01:49:45;;;;;;;;;;;;;;;;;;5033648;28;20116;-67
2021/11/06 01:52:11;;;;;;;30.58;11.73;;;;;;;;;;5034256;28;19952;-70
2021/11/06 01:54:37;;;;;;;23.95;12.95;;;;;;;;;;5032695;28;20031;-69
2021/11/06 01:57:04;;;;;;;31.45;14.48;;;;;;;;;;5032728;28;20033;-67
2021/11/06 01:59:31;;;;;;;24.52;13.55;;;;;;;;;;5032733;28;20083;-68
2021/11/06 02:01:58;;;;;;;22.63;10.98;;;;;;;;;;5032413;28;20040;-67
2021/11/06 02:04:24;;;;;;;24.40;11.80;;;;;;;;;;5033650;28;20128;-69
2021/11/06 02:06:50;;;;;;;23.20;11.52;;;;;;;;;;5032538;28;20025;-69
2021/11/06 02:09:16;;;;;;;24.73;11.68;;;;;;;;;;5032615;28;20057;-69
2021/11/06 02:11:42;;;;;;;26.67;12.45;;;;;;;;;;5033697;28;20026;-69
2021/11/06 02:14:08;;;;;;;25.88;13.13;;;;;;;;;;5033407;28;20022;-69
2021/11/06 02:16:34;;;;;;;27.55;13.35;;;;;;;;;;5033819;28;20508;-69
2021/11/06 02:19:01;;;;;;;23.55;13.25;;;;;;;;;;5032308;28;20033;-68
2021/11/06 02:21:27;;;;;;;24.13;11.80;;;;;;;;;;5033422;28;20113;-68
2021/11/06 02:23:53;;;;;;;28.90;13.32;;;;;;;;;;5033111;28;20029;-68
2021/11/06 02:26:20;;;;;;;24.00;12.20;;;;;;;;;;5031955;28;20452;-66
2021/11/06 02:28:48;;;;;;;27.80;13.75;;;;;;;;;;5033427;28;20079;-69
2021/11/06 02:31:14;;;;;;;27.83;15.45;;;;;;;;;;5032110;28;20494;-69
2021/11/06 02:33:40;;;;;;;28.65;15.32;;;;;;;;;;5031920;28;20038;-69
2021/11/06 02:36:06;;;;;;;29.77;14.57;;;;;;;;;;5033148;28;20036;-68
2021/11/06 02:38:32;;;;;;;30.67;15.02;;;;;;;;;;5033267;28;20108;-69
2021/11/06 02:40:59;;;;;;;27.50;14.63;;;;;;;;;;5033139;28;20026;-68
2021/11/06 02:43:25;;;;;;;29.20;15.48;;;;;;;;;;5033555;28;20105;-69
2021/11/06 02:45:51;;;;;;;29.45;15.18;;;;;;;;;;5033272;28;20033;-69
2021/11/06 02:48:17;;;;;;;26.10;14.65;;;;;;;;;;5033013;28;20022;-69
2021/11/06 02:50:44;;;;;;;26.92;14.27;;;;;;;;;;5032023;28;20059;-68
2021/11/06 02:53:10;;;;;;;30.83;15.20;;;;;;;;;;5033117;28;20041;-66
2021/11/06 02:55:36;;;;;;;30.25;15.13;;;;;;;;;;5031909;28;20397;-68
2021/11/06 02:58:03;;;;;;;26.70;14.77;;;;;;;;;;5031904;28;20029;-68
2021/11/06 03:00:30;;;;;;;32.45;15.82;;;;;;;;;;5031531;28;20029;-68
2021/11/06 03:02:56;;;;;;;29.48;13.77;;;;;;;;;;5032808;28;20049;-66
2021/11/06 03:05:22;;;;;;;29.02;15.18;;;;;;;;;;5032773;28;20033;-67
2021/11/06 03:07:48;;;;;;;24.52;12.18;;;;;;;;;;5031534;28;20117;-68
2021/11/06 03:10:15;;;;;;;30.42;14.80;;;;;;;;;;5033001;28;20075;-68
2021/11/06 03:12:43;;;;;;;29.45;14.23;;;;;;;;;;5031639;28;20049;-68
2021/11/06 03:15:09;;;;;;;28.90;15.40;;;;;;;;;;5032359;28;20029;-68
2021/11/06 03:17:35;;;;;;;29.65;14.95;;;;;;;;;;5031380;28;20029;-67
2021/11/06 03:20:02;;;;;;;29.30;15.00;;;;;;;;;;5032621;28;20037;-67
2021/11/06 03:22:28;;;;;;;30.50;14.02;;;;;;;;;;5031540;28;20043;-67
2021/11/06 03:24:54;;;;;;;30.60;15.73;;;;;;;;;;5031205;28;20470;-67
2021/11/06 03:27:19;;;;;;;29.40;15.80;;;;;;;;;;5032741;28;20132;-69
2021/11/06 03:29:46;;;;;;;31.80;15.45;;;;;;;;;;5030973;28;20025;-68
2021/11/06 03:32:12;;;;;;;30.27;16.15;;;;;;;;;;5031052;28;20029;-68
2021/11/06 03:34:38;;;;;;;32.40;16.23;;;;;;;;;;5032111;28;20022;-68
2021/11/06 03:37:05;;;;;;;27.85;14.23;;;;;;;;;;5032187;28;20018;-68
2021/11/06 03:39:31;;;;;;;32.30;14.90;;;;;;;;;;5032317;28;20021;-68
2021/11/06 03:41:57;;;;;;;30.58;14.90;;;;;;;;;;5031983;28;20112;-68
2021/11/06 03:44:23;;;;;;;30.88;14.43;;;;;;;;;;5032151;28;20134;-67
2021/11/06 03:46:49;;;;;;;30.33;15.32;;;;;;;;;;5032211;28;20538;-68
2021/11/06 03:49:15;;;;;;;32.33;16.75;;;;;;;;;;5032338;28;20029;-67
2021/11/06 03:51:41;;;;;;;29.33;14.32;;;;;;;;;;5031717;28;20378;-67
2021/11/06 03:54:08;;;;;;;35.17;15.70;;;;;;;;;;5031827;28;20025;-68
2021/11/06 03:56:34;;;;;;;29.38;15.30;;;;;;;;;;5030857;28;20465;-68
2021/11/06 03:59:00;;;;;;;27.73;12.88;;;;;;;;;;5032173;28;20021;-67
2021/11/06 04:01:26;;;;;;;34.25;15.45;;;;;;;;;;5030950;28;20036;-70
2021/11/06 04:03:52;;;;;;;33.20;14.15;;;;;;;;;;5031948;28;20446;-68
2021/11/06 04:06:18;;;;;;;32.47;13.40;;;;;;;;;;5031003;28;20021;-68
2021/11/06 04:08:45;;;;;;;35.45;13.07;;;;;;;;;;5030428;28;20022;-69
2021/11/06 04:11:11;;;;;;;34.50;15.45;;;;;;;;;;5031758;28;20052;-69
2021/11/06 04:13:37;;;;;;;31.38;15.38;;;;;;;;;;5030018;28;20037;-69
2021/11/06 04:16:03;;;;;;;28.63;12.70;;;;;;;;;;5030265;28;20393;-69
2021/11/06 04:18:29;;;;;;;30.30;12.35;;;;;;;;;;5030360;28;20036;-69
2021/11/06 04:20:55;;;;;;;28.13;12.02;;;;;;;;;;5031577;28;20105;-69
2021/11/06 04:23:21;;;;;;;29.95;13.00;;;;;;;;;;5031242;28;20024;-69
2021/11/06 04:25:47;;;;;;;35.42;13.20;;;;;;;;;;5031531;28;20061;-70
2021/11/06 04:28:13;;;;;;;27.45;12.73;;;;;;;;;;5030203;28;20075;-68
2021/11/06 04:30:40;;;;;;;35.65;14.38;;;;;;;;;;5030214;28;20481;-68
2021/11/06 04:33:06;;;;;;;28.90;12.13;;;;;;;;;;5031371;28;20033;-66
2021/11/06 04:35:32;;;;;;;32.83;14.35;;;;;;;;;;5031350;28;20496;-69
2021/11/06 04:37:58;;;;;;;29.42;12.38;;;;;;;;;;5030130;28;20030;-68
2021/11/06 04:40:24;;;;;;;25.52;10.43;;;;;;;;;;5030215;28;20017;-67
2021/11/06 04:42:50;;;;;;;28.33;10.93;;;;;;;;;;5031390;28;20071;-68
2021/11/06 04:45:16;;;;;;;28.60;13.05;;;;;;;;;;5031356;28;20022;-69
2021/11/06 04:47:42;;;;;;;30.63;12.15;;;;;;;;;;5031304;28;20026;-69
2021/11/06 04:50:09;;;;;;;24.48;11.82;;;;;;;;;;5031196;28;20025;-69
2021/11/06 04:52:39;;;;;;;29.67;13.25;;;;;;;;;;5030029;28;20030;-68
2021/11/06 04:55:06;;;;;;;28.30;13.00;;;;;;;;;;5031084;28;20017;-69
2021/11/06 04:57:32;;;;;;;30.58;13.18;;;;;;;;;;5030057;28;20108;-69
2021/11/06 04:59:58;;;;;;;30.75;13.48;;;;;;;;;;5031549;28;20057;-68
2021/11/06 05:02:24;;;;;;;27.17;12.60;;;;;;;;;;5031905;28;20433;-68
2021/11/06 05:04:50;;;;;;;41.38;16.50;;;;;;;;;;5034881;28;20413;-69
2021/11/06 05:07:16;;;;;;;34.10;14.43;;;;;;;;;;5035259;28;20052;-68
2021/11/06 05:09:43;;;;;;;28.90;13.45;;;;;;;;;;5035164;28;20025;-67
2021/11/06 05:12:09;;;;;;;31.67;13.43;;;;;;;;;;5034862;28;20528;-69
2021/11/06 05:14:36;;;;;;;28.70;12.98;;;;;;;;;;5034627;28;20409;-68
2021/11/06 05:17:02;;;;;;;29.27;12.05;;;;;;;;;;5034881;28;20022;-69
2021/11/06 05:19:28;;;;;;;27.75;12.65;;;;;;;;;;5033426;28;20685;-69
2021/11/06 05:21:54;;;;;;;29.27;11.57;;;;;;;;;;5034678;28;20374;-69
2021/11/06 05:24:20;;;;;;;32.70;12.52;;;;;;;;;;5033331;28;20393;-69
2021/11/06 05:26:46;;;;;;;29.38;11.52;;;;;;;;;;5034671;28;20028;-69
2021/11/06 05:29:12;;;;;;;28.90;13.43;;;;;;;;;;5033431;28;20120;-69
2021/11/06 05:31:39;;;;;;;25.52;11.93;;;;;;;;;;5033416;28;20111;-68
2021/11/06 05:34:06;;;;;;;25.02;13.43;;;;;;;;;;5053968;22;20165;-63
2021/11/06 05:36:33;;;;;;;28.15;10.75;;;;;;;;;;5021974;28;20030;-64
2021/11/06 05:38:59;;;;;;;29.38;12.35;;;;;;;;;;5028862;28;20026;-64
2021/11/06 05:41:25;;;;;;;25.77;11.90;;;;;;;;;;5033517;28;20036;-64
2021/11/06 05:43:51;;;;;;;23.80;11.15;;;;;;;;;;5015850;28;20385;-64
2021/11/06 05:46:17;;;;;;;29.05;13.93;;;;;;;;;;5013845;28;20029;-64
2021/11/06 05:48:43;;;;;;;27.38;12.05;;;;;;;;;;5013318;28;20077;-65
2021/11/06 05:51:09;;;;;;;30.52;14.02;;;;;;;;;;5022271;28;20021;-64
2021/11/06 05:53:35;;;;;;;24.40;11.75;;;;;;;;;;5033168;28;20378;-63
2021/11/06 05:56:01;;;;;;;27.63;11.07;;;;;;;;;;5033189;28;20029;-64
2021/11/06 05:58:27;;;;;;;27.30;12.60;;;;;;;;;;5033182;28;20420;-64
2021/11/06 06:00:53;;;;;;;22.75;11.52;;;;;;;;;;5034155;28;20034;-64
2021/11/06 06:03:19;;;;;;;27.05;11.52;;;;;;;;;;5034184;28;20088;-63
2021/11/06 06:05:45;;;;;;;29.90;12.43;;;;;;;;;;5034288;28;20393;-65
2021/11/06 06:08:11;;;;;;;23.15;10.48;;;;;;;;;;5024513;28;20022;-64
2021/11/06 06:10:37;;;;;;;25.85;11.10;;;;;;;;;;5013393;28;20018;-64
2021/11/06 06:13:03;;;;;;;31.05;11.18;;;;;;;;;;5014064;28;20030;-66
2021/11/06 06:15:29;;;;;;;26.20;12.40;;;;;;;;;;5012663;28;20036;-66
2021/11/06 06:17:56;;;;;;;27.30;11.93;;;;;;;;;;5012941;28;20120;-64
2021/11/06 06:20:21;;;;;;;25.00;11.55;;;;;;;;;;5014279;28;20048;-63
2021/11/06 06:22:47;;;;;;;33.08;13.43;;;;;;;;;;5014055;28;20025;-64
2021/11/06 06:25:14;;;;;;;26.48;11.02;;;;;;;;;;5013800;28;20114;-65
2021/11/06 06:27:41;;;;;;;28.80;12.75;;;;;;;;;;5014206;28;20402;-64
2021/11/06 06:30:08;;;;;;;26.63;12.60;;;;;;;;;;5013970;28;20026;-64
2021/11/06 06:32:34;;;;;;;31.55;11.68;;;;;;;;;;5014046;28;20026;-64
2021/11/06 06:35:00;;;;;;;30.10;11.43;;;;;;;;;;5019130;28;20037;-65
2021/11/06 06:37:26;;;;;;;26.98;12.15;;;;;;;;;;5033647;28;20025;-64
2021/11/06 06:39:52;;;;;;;25.90;12.43;;;;;;;;;;5033550;28;20079;-64
2021/11/06 06:42:20;;;;;;;27.50;10.77;;;;;;;;;;5032235;28;20022;-64
2021/11/06 06:44:46;;;;;;;22.55;11.98;;;;;;;;;;5031760;28;20032;-63
2021/11/06 06:47:13;;;;;;;35.20;13.55;;;;;;;;;;5032189;28;20175;-65
2021/11/06 06:49:39;;;;;;;27.00;12.50;;;;;;;;;;5033247;28;20416;-65
2021/11/06 06:52:08;;;;;;;25.30;10.30;;;;;;;;;;5033343;28;20100;-64
2021/11/06 06:54:34;;;;;;;26.60;11.75;;;;;;;;;;5032804;28;20026;-65
2021/11/06 06:57:00;;;;;;;27.27;10.95;;;;;;;;;;5031856;28;20033;-64
2021/11/06 06:59:26;;;;;;;23.83;11.27;;;;;;;;;;5031926;28;20462;-64
2021/11/06 07:01:52;;;;;;;24.73;11.15;;;;;;;;;;5033136;28;20025;-65
2021/11/06 07:04:18;;;;;;;25.00;10.98;;;;;;;;;;5031321;28;20214;-65
2021/11/06 07:06:47;;;;;;;27.67;12.13;;;;;;;;;;5031829;28;20480;-64
2021/11/06 07:09:13;;;;;;;28.13;13.02;;;;;;;;;;5032945;28;20021;-64
2021/11/06 07:11:39;;;;;;;27.20;12.52;;;;;;;;;;5031635;28;20051;-64
2021/11/06 07:14:05;;;;;;;31.60;12.82;;;;;;;;;;5031057;28;20045;-65
2021/11/06 07:16:31;;;;;;;25.38;10.98;;;;;;;;;;5031525;28;20033;-64
2021/11/06 07:18:57;;;;;;;25.58;10.77;;;;;;;;;;5031672;28;20038;-64
2021/11/06 07:21:23;;;;;;;23.27;10.57;;;;;;;;;;5031606;28;20056;-63
2021/11/06 07:23:49;;;;;;;24.83;11.15;;;;;;;;;;5032461;28;20021;-64
2021/11/06 07:26:15;;;;;;;25.00;11.77;;;;;;;;;;5030447;28;20109;-64
2021/11/06 07:28:41;;;;;;;27.23;11.38;;;;;;;;;;5031341;28;20504;-64
2021/11/06 07:31:07;;;;;;;27.98;13.02;;;;;;;;;;5031237;28;20044;-66
2021/11/06 07:33:33;;;;;;;25.30;11.07;;;;;;;;;;5031078;28;20485;-64
2021/11/06 07:35:59;;;;;;;23.05;11.10;;;;;;;;;;5031272;28;20068;-64
2021/11/06 07:38:25;;;;;;;24.42;10.48;;;;;;;;;;5030944;28;20120;-64
2021/11/06 07:40:51;;;;;;;22.98;10.45;;;;;;;;;;5031079;28;20465;-64
2021/11/06 07:43:18;;;;;;;23.20;10.52;;;;;;;;;;5031913;28;20181;-64
2021/11/06 07:45:44;;;;;;;22.65;10.45;;;;;;;;;;5030629;28;20033;-65
2021/11/06 07:48:10;;;;;;;25.50;10.20;;;;;;;;;;5032218;28;20441;-64
2021/11/06 07:50:36;;;;;;;27.65;12.27;;;;;;;;;;5032159;28;20032;-65
2021/11/06 07:53:02;;;;;;;25.67;11.57;;;;;;;;;;5032195;28;20026;-64
2021/11/06 07:55:28;;;;;;;22.92;9.45;;;;;;;;;;5031862;28;20518;-65
2021/11/06 07:57:54;;;;;;;23.75;12.13;;;;;;;;;;5032023;28;20473;-66
2021/11/06 08:00:20;;;;;;;26.30;11.32;;;;;;;;;;5030549;28;20496;-64
2021/11/06 08:02:46;;;;;;;26.90;11.48;;;;;;;;;;5030552;28;20029;-64
2021/11/06 08:05:14;;;;;;;24.60;12.10;;;;;;;;;;5031526;28;20053;-64
2021/11/06 08:07:41;;;;;;;22.90;10.82;;;;;;;;;;5032006;28;20053;-64
2021/11/06 08:10:08;;;;;;;25.77;11.70;;;;;;;;;;5030930;28;20509;-64
2021/11/06 08:12:37;;;;;;;27.80;11.98;;;;;;;;;;5031590;28;20030;-66
2021/11/06 08:15:04;;;;;;;26.50;10.35;;;;;;;;;;5029977;28;20116;-67
2021/11/06 08:17:30;;;;;;;24.35;9.95;;;;;;;;;;5031573;28;20055;-63
2021/11/06 08:19:56;;;;;;;23.65;11.13;;;;;;;;;;5030388;28;20096;-65
2021/11/06 08:22:22;;;;;;;23.35;9.63;;;;;;;;;;5030279;28;20017;-64
2021/11/06 08:24:48;;;;;;;27.95;11.73;;;;;;;;;;5031224;28;20083;-65
2021/11/06 08:27:14;;;;;;;22.85;9.95;;;;;;;;;;5029731;28;20087;-64
2021/11/06 08:29:41;;;;;;;23.38;10.43;;;;;;;;;;5030069;28;20030;-64
2021/11/06 08:32:07;;;;;;;26.45;10.07;;;;;;;;;;5030035;28;20033;-64
2021/11/06 08:34:33;;;;;;;25.35;10.45;;;;;;;;;;5030775;28;20042;-64
2021/11/06 08:36:59;;;;;;;23.08;10.85;;;;;;;;;;5031693;28;20112;-64
2021/11/06 08:39:25;;;;;;;21.10;10.27;;;;;;;;;;5034474;28;20033;-65
2021/11/06 08:41:52;;;;;;;25.35;11.02;;;;;;;;;;5035513;28;20101;-62
2021/11/06 08:44:18;;;;;;;22.45;10.07;;;;;;;;;;5036432;28;20052;-61
2021/11/06 08:46:45;;;;;;;27.52;10.45;;;;;;;;;;5036345;28;20545;-64
2021/11/06 08:49:14;;;;;;;21.83;10.02;;;;;;;;;;5036977;28;20114;-65
2021/11/06 08:51:41;;;;;;;25.83;10.95;;;;;;;;;;5034879;28;20159;-64
2021/11/06 08:54:07;;;;;;;24.52;11.45;;;;;;;;;;5035569;28;20021;-65
2021/11/06 08:56:34;;;;;;;23.02;9.20;;;;;;;;;;5034349;28;20026;-65
2021/11/06 08:59:00;;;;;;;26.05;10.25;;;;;;;;;;5035592;28;20084;-65
2021/11/06 09:01:26;;;;;;;21.33;9.50;;;;;;;;;;5035232;28;20025;-64
2021/11/06 09:03:52;;;;;;;23.17;10.38;;;;;;;;;;5034843;28;20371;-64
2021/11/06 09:06:19;;;;;;;21.95;10.00;;;;;;;;;;5035304;28;20022;-64
2021/11/06 09:08:46;;;;;;;23.38;10.70;;;;;;;;;;5035028;28;20052;-66
2021/11/06 09:11:13;;;;;;;27.05;10.80;;;;;;;;;;5033659;28;20076;-66
2021/11/06 09:13:39;;;;;;;22.52;9.60;;;;;;;;;;5035192;28;20030;-65
2021/11/06 09:16:09;;;;;;;25.55;10.75;;;;;;;;;;5034850;28;20112;-64
2021/11/06 09:18:36;;;;;;;25.88;10.93;;;;;;;;;;5035395;28;20481;-64
2021/11/06 09:21:02;;;;;;;23.60;11.90;;;;;;;;;;5033937;28;20034;-65
2021/11/06 09:23:29;;;;;;;25.58;10.90;;;;;;;;;;5034835;28;20622;-65
2021/11/06 09:25:56;;;;;;;23.88;10.48;;;;;;;;;;5035208;28;20026;-65
2021/11/06 09:28:22;;;;;;;23.40;9.68;;;;;;;;;;5033871;28;20021;-65
2021/11/06 09:30:48;;;;;;;22.00;9.20;;;;;;;;;;5035115;28;20104;-65
2021/11/06 09:33:14;;;;;;;24.67;11.45;;;;;;;;;;5034813;28;20025;-66
2021/11/06 09:35:41;;;;;;;22.65;10.30;;;;;;;;;;5034689;28;20564;-65
2021/11/06 09:38:07;;;;;;;26.85;9.18;;;;;;;;;;5033486;28;20049;-64
2021/11/06 09:40:36;;;;;;;24.08;9.45;;;;;;;;;;5033406;28;20076;-65
2021/11/06 09:43:02;;;;;;;24.85;10.23;;;;;;;;;;5033138;28;20179;-65
2021/11/06 09:45:28;;;;;;;20.00;8.38;;;;;;;;;;5034196;28;20021;-65
2021/11/06 09:47:54;;;;;;;24.20;9.73;;;;;;;;;;5033318;28;20056;-65
2021/11/06 09:50:21;;;;;;;24.13;9.90;;;;;;;;;;5034016;28;20029;-66
2021/11/06 09:52:47;;;;;;;21.20;9.25;;;;;;;;;;5032575;28;20030;-65
2021/11/06 09:55:16;;;;;;;23.13;10.32;;;;;;;;;;5033592;28;20041;-65
2021/11/06 09:57:42;;;;;;;23.73;10.70;;;;;;;;;;5033527;28;20452;-64
2021/11/06 10:00:09;;;;;;;23.73;9.18;;;;;;;;;;5033380;28;20077;-64
2021/11/06 10:02:35;;;;;;;23.80;10.50;;;;;;;;;;5031775;28;20483;-65
2021/11/06 10:05:02;;;;;;;23.55;9.95;;;;;;;;;;5032430;28;20054;-65
2021/11/06 10:07:28;;;;;;;21.13;9.90;;;;;;;;;;5033310;28;20014;-65
2021/11/06 10:09:55;;;;;;;25.75;10.55;;;;;;;;;;5033979;28;20466;-64
2021/11/06 10:12:21;;;;;;;25.35;11.75;;;;;;;;;;5033330;28;20543;-64
2021/11/06 10:14:47;;;;;;;24.15;11.88;;;;;;;;;;5032018;28;20029;-64
2021/11/06 10:17:25;;;;;;;24.77;11.60;;;;;;;;;;5033805;28;20025;-65
2021/11/06 10:19:53;;;;;;;22.33;10.23;;;;;;;;;;5032513;28;20029;-65
2021/11/06 10:22:25;;;;;;;21.70;9.38;;;;;;;;;;5032751;28;20500;-65
2021/11/06 10:24:53;;;;;;;22.15;9.93;;;;;;;;;;5032047;28;20025;-63
2021/11/06 10:27:22;;;;;;;24.58;9.18;;;;;;;;;;5033964;28;20100;-64
2021/11/06 10:29:48;;;;;;;;;;;;;;;;;;5033942;28;20091;-65
2021/11/06 10:32:14;;;;;;;24.33;10.07;;;;;;;;;;5032239;28;19905;-65
2021/11/06 10:34:41;;;;;;;34.75;12.05;;;;;;;;;;5032140;28;20045;-64
2021/11/06 10:37:12;;;;;;;22.35;9.88;;;;;;;;;;5032259;28;20079;-65
2021/11/06 10:39:52;;;;;;;22.52;9.48;;;;;;;;;;5031895;28;20053;-64
2021/11/06 10:42:18;;;;;;;22.25;9.40;;;;;;;;;;5033387;28;20474;-64
2021/11/06 10:44:44;;;;;;;25.05;9.50;;;;;;;;;;5032595;28;20032;-65
2021/11/06 10:47:11;;;;;;;22.55;10.45;;;;;;;;;;5033425;28;20477;-65
2021/11/06 10:49:42;;;;;;;20.38;9.13;;;;;;;;;;5031852;28;20026;-65
2021/11/06 10:52:16;;;;;;;21.92;9.00;;;;;;;;;;5033186;28;20018;-65
2021/11/06 10:55:00;;;;;;;24.08;9.95;;;;;;;;;;5031585;28;20533;-64
2021/11/06 10:57:27;;;;;;;22.70;10.23;;;;;;;;;;5032549;28;20022;-63
2021/11/06 11:00:05;;;;;;;21.88;9.98;;;;;;;;;;5030921;28;20025;-65
2021/11/06 11:02:31;;;;;;;22.70;10.75;;;;;;;;;;5031357;28;20036;-65
2021/11/06 11:05:00;;;;;;;21.25;8.75;;;;;;;;;;5032505;28;20092;-65
2021/11/06 11:07:25;;;;;;;21.52;9.13;;;;;;;;;;5031722;28;20025;-65
2021/11/06 11:09:52;;;;;;;21.35;9.88;;;;;;;;;;5033065;28;20495;-64
2021/11/06 11:12:18;;;;;;;20.23;8.48;;;;;;;;;;5031674;28;20113;-64
2021/11/06 11:14:54;;;;;;;19.88;8.32;;;;;;;;;;5032023;28;20026;-65
2021/11/06 11:17:38;;;;;;;18.27;8.05;;;;;;;;;;4682964;28;9999834;-65
2021/11/06 11:20:22;;;;;;;20.40;8.90;;;;;;;;;;5030260;28;20405;-66
2021/11/06 11:22:49;;;;;;;20.98;8.43;;;;;;;;;;5029155;28;20029;-66
2021/11/06 11:25:15;;;;;;;19.58;8.15;;;;;;;;;;5030285;28;20067;-65
2021/11/06 11:27:42;;;;;;;20.80;8.10;;;;;;;;;;5020274;28;20022;-65
2021/11/06 11:30:08;;;;;;;22.17;9.32;;;;;;;;;;5010360;28;20062;-66
2021/11/06 11:32:34;;;;;;;20.75;9.23;;;;;;;;;;5010757;28;20029;-66
2021/11/06 11:35:00;;;;;;;19.25;8.70;;;;;;;;;;5036585;23;20041;-67
2021/11/06 11:37:26;;;;;;;20.30;8.75;;;;;;;;;;4677932;28;10000159;-68
2021/11/06 11:39:53;;;;;;;18.75;8.20;;;;;;;;;;5026699;28;20481;-68
2021/11/06 11:42:38;;;;;;;22.92;9.43;;;;;;;;;;5028104;28;20041;-68
2021/11/06 11:45:15;;;;;;;21.35;10.30;;;;;;;;;;5027924;28;20029;-68
2021/11/06 11:47:44;;;;;;;19.17;9.27;;;;;;;;;;5010313;28;20551;-69
2021/11/06 11:50:15;;;;;;;23.80;9.65;;;;;;;;;;5027723;28;20025;-68
2021/11/06 11:52:42;;;;;;;21.77;9.65;;;;;;;;;;5010265;28;20036;-67
2021/11/06 11:55:17;;;;;;;20.67;8.88;;;;;;;;;;5027410;28;20026;-67
2021/11/06 11:57:49;;;;;;;22.05;9.10;;;;;;;;;;5009905;28;20036;-67
2021/11/06 12:00:18;;;;;;;20.40;9.55;;;;;;;;;;5027892;28;20375;-68
2021/11/06 12:02:44;;;;;;;;;;;;;;;;;;5043866;28;20094;-68
2021/11/06 12:05:20;;;;;;;19.45;8.40;;;;;;;;;;5029649;28;20446;-67
2021/11/06 12:07:46;;;;;;;18.88;8.82;;;;;;;;;;5047862;28;20488;-67
2021/11/06 12:10:25;;;;;;;22.23;9.10;;;;;;;;;;5030118;28;20028;-69
2021/11/06 12:12:51;;;;;;;22.75;10.20;;;;;;;;;;5047365;28;20392;-68
2021/11/06 12:15:17;;;;;;;19.52;8.32;;;;;;;;;;5029473;28;20087;-69
2021/11/06 12:17:43;;;;;;;19.65;8.75;;;;;;;;;;5029449;28;20025;-68
2021/11/06 12:20:28;;;;;;;20.15;8.13;;;;;;;;;;5026833;28;20449;-67
2021/11/06 12:22:55;;;;;;;21.85;10.57;;;;;;;;;;5009847;28;20053;-68
2021/11/06 12:25:24;;;;;;;20.60;9.30;;;;;;;;;;5026833;28;20111;-68
2021/11/06 12:27:51;;;;;;;19.65;9.35;;;;;;;;;;5008314;28;20033;-68
2021/11/06 12:30:32;;;;;;;18.88;8.55;;;;;;;;;;4990122;28;20121;-67
2021/11/06 12:32:59;;;;;;;19.02;8.32;;;;;;;;;;4990332;28;20042;-68
2021/11/06 12:35:25;;;;;;;17.48;7.90;;;;;;;;;;5006868;28;20034;-68
2021/11/06 12:37:51;;;;;;;20.40;8.77;;;;;;;;;;5025559;28;20017;-67
2021/11/06 12:40:20;;;;;;;18.70;8.45;;;;;;;;;;5026803;28;20430;-68
2021/11/06 12:43:09;;;;;;;19.23;8.40;;;;;;;;;;5026677;28;20080;-68
2021/11/06 12:45:36;;;;;;;19.60;9.25;;;;;;;;;;4989370;28;20570;-67
2021/11/06 12:48:06;;;;;;;16.60;7.00;;;;;;;;;;5009244;28;20061;-67
2021/11/06 12:50:32;;;;;;;21.08;8.30;;;;;;;;;;5027270;28;20087;-67
2021/11/06 12:52:58;;;;;;;17.80;8.30;;;;;;;;;;5027472;28;20042;-67
2021/11/06 12:55:24;;;;;;;20.02;7.95;;;;;;;;;;5008902;28;20141;-66
2021/11/06 12:57:50;;;;;;;19.10;8.30;;;;;;;;;;5027585;28;20053;-67
2021/11/06 13:00:27;;;;;;;21.55;8.77;;;;;;;;;;5028656;28;20033;-67
2021/11/06 13:02:54;;;;;;;17.55;7.93;;;;;;;;;;5046707;28;20314;-67
2021/11/06 13:05:21;;;;;;;18.70;7.82;;;;;;;;;;5028782;28;20057;-68
2021/11/06 13:07:51;;;;;;;19.70;8.52;;;;;;;;;;5029279;28;20116;-67
2021/11/06 13:10:21;;;;;;;20.10;8.70;;;;;;;;;;5046969;28;20079;-68
2021/11/06 13:12:48;;;;;;;21.98;9.63;;;;;;;;;;5018898;28;20044;-68
2021/11/06 13:15:14;;;;;;;17.10;7.57;;;;;;;;;;5000969;28;20101;-67
2021/11/06 13:17:40;;;;;;;19.60;8.60;;;;;;;;;;5018571;28;20076;-68
2021/11/06 13:20:12;;;;;;;21.42;8.85;;;;;;;;;;5016928;28;20518;-66
2021/11/06 13:22:59;;;;;;;18.35;7.95;;;;;;;;;;5015233;28;20100;-67
2021/11/06 13:25:33;;;;;;;19.77;7.55;;;;;;;;;;5012478;28;20025;-67
2021/11/06 13:28:09;;;;;;;16.38;7.35;;;;;;;;;;5013779;28;20030;-67
2021/11/06 13:30:46;;;;;;;18.23;7.63;;;;;;;;;;5011238;28;20022;-67
2021/11/06 13:33:17;;;;;;;17.92;7.82;;;;;;;;;;5010727;28;20036;-66
2021/11/06 13:35:43;;;;;;;19.02;8.15;;;;;;;;;;4993677;28;20478;-66
2021/11/06 13:38:10;;;;;;;16.75;7.55;;;;;;;;;;5014340;28;20029;-68
2021/11/06 13:40:42;;;;;;;18.60;9.18;;;;;;;;;;5015130;28;20061;-67
2021/11/06 13:43:16;;;;;;;15.75;7.20;;;;;;;;;;5033164;28;20485;-68
2021/11/06 13:46:01;;;;;;;15.98;7.22;;;;;;;;;;5033196;28;20032;-68
2021/11/06 13:48:28;;;;;;;17.58;7.80;;;;;;;;;;5015249;28;20025;-68
2021/11/06 13:50:55;;;;;;;20.10;7.40;;;;;;;;;;5015261;28;20074;-68
2021/11/06 13:53:25;;;;;;;17.38;7.57;;;;;;;;;;5017287;28;20036;-69
2021/11/06 13:55:58;;;;;;;15.95;6.93;;;;;;;;;;5013130;28;20029;-67
2021/11/06 13:58:27;;;;;;;17.95;7.95;;;;;;;;;;4995796;28;20080;-66
2021/11/06 14:00:54;;;;;;;18.90;8.00;;;;;;;;;;4680240;28;10000287;-66
2021/11/06 14:03:21;;;;;;;17.00;7.15;;;;;;;;;;5012038;28;20021;-66
2021/11/06 14:05:48;;;;;;;16.60;7.18;;;;;;;;;;5011893;28;20033;-68
2021/11/06 14:08:15;;;;;;;21.25;8.23;;;;;;;;;;5010940;28;20143;-66
2021/11/06 14:10:43;;;;;;;16.60;7.85;;;;;;;;;;5029566;28;20037;-67
2021/11/06 14:13:11;;;;;;;18.48;7.28;;;;;;;;;;5011486;28;20159;-67
2021/11/06 14:15:40;;;;;;;18.23;7.68;;;;;;;;;;5029658;28;20017;-67
2021/11/06 14:18:09;;;;;;;18.23;7.80;;;;;;;;;;5029729;28;20028;-71
2021/11/06 14:20:49;;;;;;;16.52;6.68;;;;;;;;;;5011523;28;20025;-68
2021/11/06 14:23:16;;;;;;;18.30;7.70;;;;;;;;;;5011354;28;20405;-68